<?xml version="1.0" encoding="UTF-8" standalone="no" ?><gpx xmlns="http://www.topografix.com/GPX/1/1" xmlns:gpxx="http://www.garmin.com/xmlschemas/GpxExtensions/v3" xmlns:gpxtrkx="http://www.garmin.com/xmlschemas/TrackStatsExtension/v1" xmlns:wptx1="http://www.garmin.com/xmlschemas/WaypointExtension/v1" xmlns:gpxtpx="http://www.garmin.com/xmlschemas/TrackPointExtension/v1" creator="eTrex 30" version="1.1" xmlns:xsi="http://www.w3.org/2001/XMLSchema-instance" xsi:schemaLocation="http://www.topografix.com/GPX/1/1 http://www.topografix.com/GPX/1/1/gpx.xsd http://www.garmin.com/xmlschemas/GpxExtensions/v3 http://www8.garmin.com/xmlschemas/GpxExtensionsv3.xsd http://www.garmin.com/xmlschemas/TrackStatsExtension/v1 http://www8.garmin.com/xmlschemas/TrackStatsExtension.xsd http://www.garmin.com/xmlschemas/WaypointExtension/v1 http://www8.garmin.com/xmlschemas/WaypointExtensionv1.xsd http://www.garmin.com/xmlschemas/TrackPointExtension/v1 http://www.garmin.com/xmlschemas/TrackPointExtensionv1.xsd"><metadata><link href="http://www.garmin.com"><text>Garmin International</text></link><time>2014-09-12T08:53:59Z</time></metadata><trk><name>GRANDE</name><extensions><gpxx:TrackExtension><gpxx:DisplayColor>Black</gpxx:DisplayColor></gpxx:TrackExtension><gpxtrkx:TrackStatsExtension><gpxtrkx:Distance>1898</gpxtrkx:Distance></gpxtrkx:TrackStatsExtension></extensions><trkseg><trkpt lat="45.6263513770" lon="13.8647811301"><ele>242.87</ele><time>2014-09-12T08:43:30Z</time></trkpt><trkpt lat="45.6260484550" lon="13.8661011122"><ele>248.64</ele><time>2014-09-12T08:44:13Z</time></trkpt><trkpt lat="45.6252847798" lon="13.8667226303"><ele>243.83</ele><time>2014-09-12T08:44:42Z</time></trkpt><trkpt lat="45.6246475875" lon="13.8671206031"><ele>243.35</ele><time>2014-09-12T08:45:07Z</time></trkpt><trkpt lat="45.6247515231" lon="13.8684813213"><ele>243.83</ele><time>2014-09-12T08:45:23Z</time></trkpt><trkpt lat="45.6250570435" lon="13.8696947694"><ele>247.68</ele><time>2014-09-12T08:45:36Z</time></trkpt><trkpt lat="45.6252335664" lon="13.8709419966"><ele>248.64</ele><time>2014-09-12T08:45:50Z</time></trkpt><trkpt lat="45.6251753122" lon="13.8722698577"><ele>260.65</ele><time>2014-09-12T08:46:02Z</time></trkpt><trkpt lat="45.6244078651" lon="13.8733202778"><ele>276.52</ele><time>2014-09-12T08:46:15Z</time></trkpt><trkpt lat="45.6233230792" lon="13.8739786763"><ele>284.69</ele><time>2014-09-12T08:46:26Z</time></trkpt><trkpt lat="45.6229160540" lon="13.8751361333"><ele>292.86</ele><time>2014-09-12T08:46:39Z</time></trkpt><trkpt lat="45.6219900213" lon="13.8757715654"><ele>294.78</ele><time>2014-09-12T08:46:51Z</time></trkpt><trkpt lat="45.6214861013" lon="13.8767721131"><ele>280.36</ele><time>2014-09-12T08:47:04Z</time></trkpt><trkpt lat="45.6208371744" lon="13.8778851461"><ele>260.65</ele><time>2014-09-12T08:47:16Z</time></trkpt><trkpt lat="45.6202475913" lon="13.8784445543"><ele>259.21</ele><time>2014-09-12T08:49:25Z</time></trkpt><trkpt lat="45.6196142547" lon="13.8794894423"><ele>264.50</ele><time>2014-09-12T08:50:46Z</time></trkpt><trkpt lat="45.6190991867" lon="13.8802736532"><ele>268.35</ele><time>2014-09-12T08:51:45Z</time></trkpt></trkseg></trk></gpx>